Time;durP1;ratioP1;P1;durP2;ratioP2;P2;SDS_P1;SDS_P2;PMS_P1;PMS_P2;Temp;Humidity;BMP_temperature;BMP_pressure;BME280_temperature;BME280_humidity;BME280_pressure;Samples;Min_cycle;Max_cycle;Signal;HPM_P1;HPM_P2
2022/12/29 05:24:52;;;;;;;12.25;7.72;;;;;;;2.81;57.90;100985.79;1790628;77;22786;-65
2022/12/29 05:28:55;;;;;;;8.08;3.33;;;;;;;2.81;57.93;100984.92;1776256;78;22030;-63
2022/12/29 05:31:23;;;;;;;10.60;7.08;;;;;;;2.84;57.73;100992.61;1743934;80;21023;-62
2022/12/29 05:33:49;;;;;;;8.13;3.02;;;;;;;2.83;57.79;100992.23;1727188;81;21790;-62
2022/12/29 05:36:16;;;;;;;8.38;2.33;;;;;;;2.83;57.84;100999.57;1752804;81;21532;-63
2022/12/29 05:38:44;;;;;;;7.15;3.58;;;;;;;2.81;57.83;100990.13;1749469;80;21042;-63
2022/12/29 05:41:11;;;;;;;12.43;7.05;;;;;;;2.78;57.96;100993.70;1752590;81;21516;-65
2022/12/29 05:43:56;;;;;;;8.13;2.98;;;;;;;2.78;57.93;100994.53;1750477;81;21058;-64
2022/12/29 05:46:30;;;;;;;6.17;2.83;;;;;;;2.77;58.03;100994.16;1752445;81;21544;-64
2022/12/29 05:49:11;;;;;;;9.68;3.55;;;;;;;2.78;58.00;100996.30;1719088;81;21018;-65
2022/12/29 05:51:39;;;;;;;11.68;7.47;;;;;;;2.75;58.03;101002.45;1752899;80;21078;-65
2022/12/29 05:54:06;;;;;;;11.48;4.33;;;;;;;2.76;58.01;101009.81;1755896;80;21004;-65
2022/12/29 05:56:34;;;;;;;8.55;3.20;;;;;;;2.76;58.04;101003.31;1756247;80;21041;-64
2022/12/29 05:59:01;;;;;;;10.32;4.62;;;;;;;2.80;58.05;101008.78;1745937;80;21155;-65
2022/12/29 06:01:27;;;;;;;6.40;2.92;;;;;;;2.79;58.01;101004.05;1727457;81;21047;-62
2022/12/29 06:03:55;;;;;;;12.15;7.22;;;;;;;2.83;58.00;101000.03;1744086;81;21023;-63
2022/12/29 06:06:21;;;;;;;7.50;2.80;;;;;;;2.83;57.97;100992.23;1747707;80;21523;-63
2022/12/29 06:08:48;;;;;;;13.35;7.60;;;;;;;2.87;57.94;100987.30;1722783;81;21724;-62
2022/12/29 06:11:15;;;;;;;7.90;3.92;;;;;;;2.89;57.95;100984.19;1753760;80;21837;-63
2022/12/29 06:13:44;;;;;;;7.17;3.55;;;;;;;2.87;57.78;100974.30;1751112;80;21067;-63
2022/12/29 06:16:11;;;;;;;8.63;3.37;;;;;;;2.89;57.86;100977.69;1751255;81;20980;-63
2022/12/29 06:18:38;;;;;;;8.73;3.55;;;;;;;2.87;57.88;100986.00;1720032;80;20999;-63
2022/12/29 06:21:05;;;;;;;13.83;8.28;;;;;;;2.86;57.94;100985.16;1753068;81;21114;-63
2022/12/29 06:23:32;;;;;;;7.25;3.02;;;;;;;2.85;57.95;100976.12;1756047;80;21290;-63
2022/12/29 06:25:59;;;;;;;10.32;3.92;;;;;;;2.84;57.93;100977.88;1747729;80;21763;-63
2022/12/29 06:28:25;;;;;;;10.60;3.87;;;;;;;2.83;58.00;100980.54;1749541;80;21046;-62
2022/12/29 06:30:53;;;;;;;8.98;3.45;;;;;;;2.79;58.12;100983.25;1749759;81;20994;-62
2022/12/29 06:33:20;;;;;;;9.63;3.70;;;;;;;2.77;58.09;100985.06;1752483;81;21067;-62
2022/12/29 06:35:47;;;;;;;11.10;4.12;;;;;;;2.76;58.20;100991.62;1746334;80;22154;-62
2022/12/29 06:38:15;;;;;;;11.10;4.60;;;;;;;2.76;58.21;100995.52;1752430;81;22064;-62
2022/12/29 06:40:44;;;;;;;11.88;8.58;;;;;;;2.77;58.32;100996.77;1749470;80;21066;-66
2022/12/29 06:43:17;;;;;;;12.05;4.95;;;;;;;2.78;58.38;100990.64;1750875;80;21071;-64
2022/12/29 06:46:05;;;;;;;11.18;4.00;;;;;;;2.83;58.30;100996.13;1749539;80;21038;-65
2022/12/29 06:48:33;;;;;;;8.40;3.52;;;;;;;2.84;58.29;101008.20;1752871;81;21555;-63
2022/12/29 06:50:59;;;;;;;8.43;4.22;;;;;;;2.83;58.29;101008.66;1753012;80;21059;-66
2022/12/29 06:53:26;;;;;;;12.85;5.15;;;;;;;2.85;58.31;100996.91;1749216;81;21133;-64
2022/12/29 06:55:53;;;;;;;14.75;9.00;;;;;;;2.87;58.31;101005.49;1754961;80;21043;-64
2022/12/29 06:58:19;;;;;;;9.23;4.15;;;;;;;2.92;58.27;101007.00;1752903;80;21094;-63
2022/12/29 07:00:46;;;;;;;14.33;3.95;;;;;;;2.96;58.19;101010.36;1746688;81;21855;-63
2022/12/29 07:03:13;;;;;;;16.52;9.05;;;;;;;2.98;58.17;101006.78;1729841;81;21134;-64
2022/12/29 07:05:39;;;;;;;12.13;4.80;;;;;;;3.01;58.16;101003.23;1751670;80;21082;-64
2022/12/29 07:08:06;;;;;;;12.73;4.03;;;;;;;3.06;57.96;101009.52;1752899;81;21070;-64
2022/12/29 07:10:32;;;;;;;7.65;3.30;;;;;;;3.07;57.93;101010.77;1749873;80;21039;-64
2022/12/29 07:13:00;;;;;;;14.68;8.58;;;;;;;3.09;57.93;101011.58;1752490;81;21038;-64
2022/12/29 07:15:27;;;;;;;11.38;4.70;;;;;;;3.11;57.89;101011.06;1751564;80;21023;-64
2022/12/29 07:17:53;;;;;;;11.95;4.28;;;;;;;3.12;57.96;101002.34;1752518;81;22199;-65
2022/12/29 07:20:20;;;;;;;10.43;5.30;;;;;;;3.17;57.80;101000.86;1749065;80;21058;-65
2022/12/29 07:22:47;;;;;;;7.67;3.80;;;;;;;3.16;57.72;101010.42;1752113;80;21022;-65
2022/12/29 07:25:14;;;;;;;8.68;4.90;;;;;;;3.18;57.65;100998.67;1754102;80;21707;-64
2022/12/29 07:27:41;;;;;;;9.10;4.25;;;;;;;3.19;57.74;101003.41;1747455;80;21051;-64
2022/12/29 07:30:09;;;;;;;13.95;4.15;;;;;;;3.23;57.79;101027.94;1747186;80;21066;-64
2022/12/29 07:32:36;;;;;;;13.72;8.75;;;;;;;3.24;57.60;101024.88;1752090;80;21062;-64
2022/12/29 07:35:02;;;;;;;12.58;4.08;;;;;;;3.26;57.47;101015.25;1752363;80;21078;-64
2022/12/29 07:37:29;;;;;;;9.70;5.00;;;;;;;3.27;57.31;101008.69;1752382;81;21093;-64
2022/12/29 07:39:56;;;;;;;8.55;4.55;;;;;;;3.27;57.38;101006.55;1750376;80;21056;-64
2022/12/29 07:42:24;;;;;;;11.63;4.85;;;;;;;3.27;57.45;100998.75;1747747;81;21595;-65
2022/12/29 07:44:52;;;;;;;14.80;4.72;;;;;;;3.29;57.52;101007.33;1750100;80;21065;-64
2022/12/29 07:47:21;;;;;;;13.45;8.05;;;;;;;3.34;57.59;100998.89;1751360;80;22090;-64
2022/12/29 07:49:47;;;;;;;9.90;3.87;;;;;;;3.41;57.41;101003.39;1752657;81;21125;-64
2022/12/29 07:52:14;;;;;;;8.73;3.90;;;;;;;3.45;57.16;100997.17;1749370;80;21542;-63
2022/12/29 07:54:41;;;;;;;10.72;5.15;;;;;;;3.47;57.07;100989.69;1747418;80;21000;-64
2022/12/29 07:57:07;;;;;;;9.80;3.92;;;;;;;3.54;57.15;100980.70;1745609;80;21516;-64
2022/12/29 07:59:34;;;;;;;11.93;7.90;;;;;;;3.63;56.89;100983.84;1749688;81;20992;-64
2022/12/29 08:02:01;;;;;;;11.05;3.52;;;;;;;3.68;56.51;100980.59;1753419;80;22095;-64
2022/12/29 08:04:27;;;;;;;8.90;3.98;;;;;;;3.69;56.53;100972.72;1751212;81;21570;-64
2022/12/29 08:06:54;;;;;;;7.40;4.10;;;;;;;3.73;56.48;100979.95;1753313;81;21007;-64
2022/12/29 08:09:21;;;;;;;10.25;5.15;;;;;;;3.78;56.26;100978.45;1729335;81;21531;-64
2022/12/29 08:11:47;;;;;;;10.15;4.47;;;;;;;3.80;56.38;100973.59;1751084;80;21066;-65
2022/12/29 08:14:14;;;;;;;9.20;3.98;;;;;;;3.84;56.37;100973.00;1754828;81;21143;-64
2022/12/29 08:16:41;;;;;;;9.43;4.22;;;;;;;3.88;56.22;100985.83;1751903;81;21137;-64
2022/12/29 08:19:12;;;;;;;17.02;4.75;;;;;;;3.90;56.13;100985.30;1754417;80;21018;-66
2022/12/29 08:21:38;;;;;;;8.28;4.42;;;;;;;3.96;56.11;100987.25;1746967;80;22194;-64
2022/12/29 08:24:06;;;;;;;9.38;4.25;;;;;;;3.99;56.01;100991.03;1753456;80;21046;-65
2022/12/29 08:26:33;;;;;;;11.35;5.33;;;;;;;4.02;55.73;100991.75;1752738;80;21145;-64
2022/12/29 08:29:00;;;;;;;15.80;8.60;;;;;;;4.04;55.81;100986.47;1741961;80;21496;-63
2022/12/29 08:31:28;;;;;;;8.50;3.52;;;;;;;4.11;55.97;100986.59;1739060;82;21031;-64
2022/12/29 08:33:54;;;;;;;13.85;8.25;;;;;;;4.20;55.76;100982.30;1737581;80;21006;-63
2022/12/29 08:36:23;;;;;;;7.80;4.28;;;;;;;4.24;55.49;100986.45;1739751;82;21552;-63
2022/12/29 08:38:50;;;;;;;8.80;4.20;;;;;;;4.26;55.10;100985.91;1736376;80;21164;-63
2022/12/29 08:41:17;;;;;;;15.00;8.55;;;;;;;4.24;55.07;100976.02;1740746;81;21043;-63
2022/12/29 08:43:49;;;;;;;8.60;3.50;;;;;;;4.23;55.17;100977.39;1737483;80;21146;-63
2022/12/29 08:46:16;;;;;;;9.93;4.97;;;;;;;4.24;55.46;100975.19;1736707;82;21599;-64
2022/12/29 08:48:42;;;;;;;11.50;5.42;;;;;;;4.27;55.18;100978.50;1736285;80;21620;-63
2022/12/29 08:51:09;;;;;;;14.20;9.08;;;;;;;4.27;55.21;100977.20;1735442;80;21247;-64
2022/12/29 08:53:36;;;;;;;8.80;4.53;;;;;;;4.26;55.06;100995.50;1737960;80;21107;-64
2022/12/29 08:56:03;;;;;;;14.33;9.00;;;;;;;4.27;55.18;100998.04;1739358;80;21078;-63
2022/12/29 08:58:30;;;;;;;10.58;5.35;;;;;;;4.26;55.09;100998.94;1734849;81;21047;-64
2022/12/29 09:00:57;;;;;;;13.45;8.83;;;;;;;4.27;55.24;100983.71;1738358;80;21008;-64
2022/12/29 09:03:24;;;;;;;9.28;4.40;;;;;;;4.32;55.36;100987.86;1738647;82;21573;-64
2022/12/29 09:05:52;;;;;;;13.32;9.30;;;;;;;4.36;55.28;100985.52;1740109;80;21581;-63
2022/12/29 09:08:19;;;;;;;10.03;4.65;;;;;;;4.38;55.20;100980.61;1736903;82;21031;-64
2022/12/29 09:10:45;;;;;;;9.40;4.62;;;;;;;4.41;55.21;100980.95;1738827;80;21107;-65
2022/12/29 09:13:13;;;;;;;15.38;10.20;;;;;;;4.43;55.38;100976.51;1739861;81;21098;-64
2022/12/29 09:27:42;;;;;;;8.88;4.28;;;;;;;4.43;55.37;100970.00;1719003;80;21016;-64
2022/12/29 09:30:11;;;;;;;14.33;8.68;;;;;;;4.43;55.26;100968.69;1749284;80;21086;-64
2022/12/29 09:32:38;;;;;;;14.90;5.28;;;;;;;4.43;55.19;100970.00;1735359;80;21901;-64
2022/12/29 09:35:05;;;;;;;12.78;9.23;;;;;;;4.43;55.21;100966.09;1755306;81;21086;-64
2022/12/29 09:37:31;;;;;;;12.05;5.15;;;;;;;4.45;55.17;100959.04;1755544;80;21606;-64
2022/12/29 09:39:58;;;;;;;12.65;9.03;;;;;;;4.46;55.14;100957.67;1752780;80;21058;-65
2022/12/29 09:42:44;;;;;;;15.03;9.10;;;;;;;4.48;55.34;100956.77;1748181;80;21036;-65
2022/12/29 09:45:18;;;;;;;9.85;3.80;;;;;;;4.51;55.25;100948.81;1756313;81;21319;-66
2022/12/29 09:47:45;;;;;;;9.28;4.62;;;;;;;4.54;55.15;100946.04;1744296;80;21008;-65
2022/12/29 09:50:20;;;;;;;13.88;9.23;;;;;;;4.54;54.99;100940.83;1749749;81;21043;-65
2022/12/29 09:53:05;;;;;;;9.75;4.00;;;;;;;4.51;54.93;100932.70;1743787;80;21535;-64
2022/12/29 09:55:42;;;;;;;11.57;5.83;;;;;;;4.52;55.19;100935.69;1751280;81;21074;-64
2022/12/29 09:58:29;;;;;;;13.15;5.28;;;;;;;4.55;55.19;100925.59;1745566;80;21202;-64
2022/12/29 10:01:13;;;;;;;10.78;5.15;;;;;;;4.60;55.20;100928.83;1749974;81;21011;-63
2022/12/29 10:03:51;;;;;;;10.68;4.85;;;;;;;4.67;55.36;100930.69;1747397;80;21551;-65
2022/12/29 10:06:35;;;;;;;14.38;9.20;;;;;;;4.71;54.94;100918.75;1751389;81;21149;-66
2022/12/29 10:09:22;;;;;;;13.35;4.87;;;;;;;4.73;55.01;100910.86;1749207;80;21059;-64
2022/12/29 10:12:00;;;;;;;16.00;9.05;;;;;;;4.78;54.99;100909.72;1751093;80;21156;-64
2022/12/29 10:15:14;;;;;;;11.12;5.05;;;;;;;4.84;54.73;100907.27;1748335;80;21523;-64
2022/12/29 10:18:04;;;;;;;14.73;9.48;;;;;;;4.85;54.56;100897.23;1747624;80;21070;-63
2022/12/29 10:20:42;;;;;;;16.15;9.10;;;;;;;4.87;54.82;100895.39;1750808;81;21031;-63
2022/12/29 10:23:36;;;;;;;13.60;8.68;;;;;;;4.93;55.14;100899.48;1743865;80;21543;-63
2022/12/29 10:26:03;;;;;;;7.30;3.15;;;;;;;4.98;55.05;100889.20;1750761;81;21258;-63
2022/12/29 10:28:46;;;;;;;16.48;9.73;;;;;;;5.02;54.41;100888.12;1742459;80;20999;-63
2022/12/29 10:31:28;;;;;;;14.80;9.13;;;;;;;5.03;54.38;100888.52;1726093;82;21043;-63
2022/12/29 10:33:58;;;;;;;13.18;9.28;;;;;;;5.02;54.21;100882.91;1742312;80;21081;-63
2022/12/29 10:36:40;;;;;;;10.48;4.60;;;;;;;5.00;54.11;100882.61;1749700;80;21023;-64
2022/12/29 10:39:15;;;;;;;14.87;9.45;;;;;;;5.00;54.30;100873.48;1746584;80;21265;-63
2022/12/29 10:41:51;;;;;;;9.95;5.17;;;;;;;5.02;54.56;100879.46;1752991;80;21030;-64
2022/12/29 10:44:18;;;;;;;10.80;4.92;;;;;;;5.07;54.62;100878.77;1753015;81;21097;-64
2022/12/29 10:46:46;;;;;;;16.97;9.55;;;;;;;5.13;54.39;100887.61;1752721;80;21139;-64
2022/12/29 10:49:17;;;;;;;10.48;5.40;;;;;;;5.15;54.45;100879.25;1752678;81;21034;-64
2022/12/29 10:51:45;;;;;;;17.55;8.63;;;;;;;5.19;54.53;100882.11;1748508;81;21774;-64
2022/12/29 10:54:59;;;;;;;12.90;4.50;;;;;;;5.18;54.52;100874.35;1869726;74;22628;-62
2022/12/29 10:57:45;;;;;;;13.93;9.83;;;;;;;5.30;54.04;100873.73;1850748;75;20966;-63
2022/12/29 11:00:20;;;;;;;9.20;4.10;;;;;;;5.30;54.11;100871.12;1838310;77;21202;-63
2022/12/29 11:02:55;;;;;;;10.78;6.08;;;;;;;5.31;54.08;100869.34;1846305;77;22234;-63
2022/12/29 11:05:48;;;;;;;9.88;4.87;;;;;;;5.30;54.15;100868.51;1838680;77;21520;-63
2022/12/29 11:08:25;;;;;;;16.37;8.78;;;;;;;5.31;54.29;100862.81;1833579;77;20976;-63
2022/12/29 11:11:00;;;;;;;;;;;;;;;5.30;54.34;100858.07;1831912;77;21066;-63
2022/12/29 11:13:29;;;;;;;11.25;4.30;;;;;;;5.33;54.45;100851.39;1855667;77;21097;-64
2022/12/29 11:15:56;;;;;;;14.98;9.68;;;;;;;5.31;54.34;100844.55;1844416;77;20938;-63
2022/12/29 11:18:36;;;;;;;13.40;8.88;;;;;;;5.29;54.65;100847.70;1829801;77;20993;-63
2022/12/29 11:21:07;;;;;;;11.93;5.45;;;;;;;5.33;54.66;100845.31;1856307;77;21033;-63
2022/12/29 11:23:41;;;;;;;16.93;9.43;;;;;;;5.35;54.80;100843.49;1857831;76;20989;-63
2022/12/29 11:26:15;;;;;;;14.63;10.32;;;;;;;5.36;54.60;100841.25;1815540;77;21148;-63
2022/12/29 11:28:45;;;;;;;9.75;5.35;;;;;;;5.34;54.67;100843.09;1808268;77;21007;-63
2022/12/29 11:31:17;;;;;;;18.12;12.35;;;;;;;5.31;54.71;100846.72;1813001;78;21427;-63
2022/12/29 11:33:43;;;;;;;14.05;10.45;;;;;;;5.29;54.86;100848.55;1782512;77;21287;-63
2022/12/29 11:36:23;;;;;;;12.40;5.50;;;;;;;5.27;54.73;100847.78;1766709;78;21089;-63
2022/12/29 11:38:54;;;;;;;17.45;12.07;;;;;;;5.27;54.95;100848.25;1789322;79;21243;-63
2022/12/29 11:41:25;;;;;;;20.70;13.38;;;;;;;5.26;55.08;100851.33;1795737;79;21018;-63
2022/12/29 11:43:53;;;;;;;26.75;19.48;;;;;;;5.26;55.19;100852.64;1793158;78;21017;-63
2022/12/29 11:46:28;;;;;;;22.90;16.23;;;;;;;5.30;55.26;100861.16;1793501;79;21018;-63
2022/12/29 11:48:58;;;;;;;18.05;11.03;;;;;;;5.32;55.29;100861.91;1774225;79;21089;-63
2022/12/29 11:54:31;;;;;;;11.18;4.72;;;;;;;5.34;55.07;100862.67;1667624;84;21121;-58
2022/12/29 11:57:00;;;;;;;15.55;9.78;;;;;;;5.36;55.19;100866.04;1707157;83;21123;-57
2022/12/29 11:59:38;;;;;;;13.60;5.40;;;;;;;5.36;54.97;100861.69;1706889;83;21092;-59
2022/12/29 12:02:41;;;;;;;10.15;4.72;;;;;;;5.39;55.02;100861.50;1671918;83;21083;-58
2022/12/29 12:05:37;;;;;;;10.18;5.35;;;;;;;5.39;54.44;100865.42;1704389;83;21139;-58
2022/12/29 12:08:34;;;;;;;11.22;4.85;;;;;;;5.36;54.30;100865.59;1703674;83;21111;-57
2022/12/29 12:11:35;;;;;;;13.18;8.80;;;;;;;5.32;54.34;100864.52;1723538;82;21044;-57
2022/12/29 12:14:17;;;;;;;15.68;9.68;;;;;;;5.29;54.32;100861.59;1688370;83;21081;-62
2022/12/29 12:17:17;;;;;;;9.73;3.92;;;;;;;5.30;54.38;100862.45;1709999;83;21474;-57
2022/12/29 12:20:02;;;;;;;14.98;9.53;;;;;;;5.28;54.41;100861.22;1707028;83;21974;-57
2022/12/29 12:22:40;;;;;;;10.00;4.20;;;;;;;5.26;53.98;100864.37;1704565;83;22255;-57
2022/12/29 12:25:23;;;;;;;8.15;5.10;;;;;;;5.24;54.10;100865.36;1697260;83;21552;-58
2022/12/29 12:28:17;;;;;;;14.78;9.10;;;;;;;5.21;54.25;100867.65;1703767;83;21062;-58
2022/12/29 12:30:48;;;;;;;18.95;10.35;;;;;;;5.20;54.23;100869.42;1698561;84;21086;-58
2022/12/29 12:33:28;;;;;;;14.65;9.88;;;;;;;5.20;54.21;100869.89;1702761;82;21201;-57
2022/12/29 12:36:28;;;;;;;10.88;4.90;;;;;;;5.19;54.13;100872.11;1697147;83;21011;-57
2022/12/29 12:39:23;;;;;;;14.80;9.38;;;;;;;5.16;54.18;100867.91;1698216;83;21069;-58
2022/12/29 12:42:01;;;;;;;8.88;4.15;;;;;;;5.15;54.23;100870.58;1687230;83;21539;-57
2022/12/29 12:44:57;;;;;;;16.10;9.58;;;;;;;5.12;54.34;100866.34;1698732;83;21107;-56
2022/12/29 12:48:08;;;;;;;12.60;5.28;;;;;;;5.15;54.54;100867.50;1690005;83;21315;-58
2022/12/29 12:51:13;;;;;;;15.23;10.63;;;;;;;5.20;54.57;100864.67;1717374;83;21024;-56
2022/12/29 12:54:03;;;;;;;16.57;9.83;;;;;;;5.19;54.24;100861.67;1713185;83;21149;-58
2022/12/29 12:56:55;;;;;;;14.03;10.15;;;;;;;5.15;54.31;100861.45;1697370;83;21135;-59
2022/12/29 12:59:44;;;;;;;9.85;4.45;;;;;;;5.14;54.45;100854.53;1688939;83;21022;-59
2022/12/29 13:02:41;;;;;;;10.90;4.40;;;;;;;5.14;54.37;100846.70;1705001;83;21142;-58
2022/12/29 13:05:35;;;;;;;9.50;5.03;;;;;;;5.12;54.61;100841.56;1695510;83;21010;-59
2022/12/29 13:23:17;;;;;;;14.73;6.60;;;;;;;5.11;55.02;100819.47;1688943;83;22288;-57
2022/12/29 13:25:54;;;;;;;10.78;6.05;;;;;;;5.14;55.24;100820.62;1716838;81;21088;-58
2022/12/29 13:28:26;;;;;;;19.10;10.15;;;;;;;5.17;55.25;100832.21;1694391;83;21103;-58
2022/12/29 13:31:15;;;;;;;17.05;11.80;;;;;;;5.18;55.32;100837.36;1709772;82;21107;-58
2022/12/29 13:34:06;;;;;;;12.73;4.83;;;;;;;5.22;55.34;100851.09;1692964;84;21036;-58
2022/12/29 13:36:49;;;;;;;14.50;10.40;;;;;;;5.22;55.11;100853.70;1684570;83;21526;-56
2022/12/29 13:39:37;;;;;;;21.75;14.28;;;;;;;5.19;54.95;100855.14;1692653;83;20996;-58
2022/12/29 13:42:04;;;;;;;21.87;6.83;;;;;;;5.18;54.95;100856.09;1667856;84;21539;-58
2022/12/29 13:44:51;;;;;;;20.32;11.30;;;;;;;5.15;55.07;100851.02;1708990;82;21138;-56
2022/12/29 13:47:42;;;;;;;9.70;5.80;;;;;;;5.16;55.14;100856.60;1712266;82;26681;-56
2022/12/29 13:50:21;;;;;;;8.48;5.00;;;;;;;5.14;55.00;100854.53;1709571;81;70144;-71
2022/12/29 13:52:57;;;;;;;15.53;10.32;;;;;;;5.07;55.18;100850.55;1683289;83;21066;-70
2022/12/29 13:58:45;;;;;;;12.10;5.90;;;;;;;4.95;55.67;100848.09;1869138;74;22460;-70
2022/12/29 14:01:32;;;;;;;12.80;6.80;;;;;;;5.03;55.47;100849.39;1840569;77;20915;-71
2022/12/29 14:04:00;;;;;;;16.82;10.60;;;;;;;5.03;55.50;100846.78;1836600;77;21266;-70
2022/12/29 14:06:31;;;;;;;16.42;10.40;;;;;;;5.01;55.58;100846.49;1827953;77;21718;-71
2022/12/29 14:09:04;;;;;;;10.00;5.08;;;;;;;4.99;55.43;100861.34;1841790;77;21390;-70
2022/12/29 14:11:39;;;;;;;16.62;10.93;;;;;;;4.97;55.56;100849.69;1849498;77;21040;-70
2022/12/29 14:14:24;;;;;;;12.90;6.30;;;;;;;4.95;55.63;100851.53;1850946;75;22218;-70
2022/12/29 14:16:52;;;;;;;15.93;10.85;;;;;;;4.94;55.85;100857.69;1852016;77;21164;-70
2022/12/29 14:19:29;;;;;;;17.02;11.48;;;;;;;4.93;56.00;100862.50;1849493;77;20980;-71
2022/12/29 14:22:00;;;;;;;9.60;5.70;;;;;;;4.93;55.93;100862.50;1851099;77;21010;-71
2022/12/29 14:24:43;;;;;;;13.90;5.42;;;;;;;4.91;56.08;100860.44;1844151;77;21026;-71
2022/12/29 14:27:15;;;;;;;9.75;5.78;;;;;;;4.92;56.02;100858.66;1841793;77;21022;-71
2022/12/29 14:29:44;;;;;;;14.05;9.90;;;;;;;4.89;56.16;100862.25;1839883;77;21067;-70
2022/12/29 14:32:32;;;;;;;17.77;10.75;;;;;;;4.86;56.36;100865.03;1856672;75;20995;-70
2022/12/29 14:35:00;;;;;;;15.30;11.35;;;;;;;4.83;56.32;100865.17;1836667;77;21024;-70
2022/12/29 14:37:32;;;;;;;16.85;10.50;;;;;;;4.81;56.39;100859.20;1858304;77;21018;-70
2022/12/29 14:40:27;;;;;;;12.73;6.15;;;;;;;4.79;56.44;100854.49;1860549;75;21026;-70
2022/12/29 14:42:55;;;;;;;12.47;6.62;;;;;;;4.79;56.49;100848.84;1837848;75;22252;-70
2022/12/29 14:45:33;;;;;;;9.15;5.10;;;;;;;4.77;56.64;100837.62;1842881;77;21050;-70
2022/12/29 14:48:00;;;;;;;18.25;10.85;;;;;;;4.76;56.71;100835.95;1846959;75;21014;-70
2022/12/29 14:50:43;;;;;;;10.48;4.67;;;;;;;4.77;56.81;100827.66;1852695;75;21089;-70
2022/12/29 14:53:36;;;;;;;16.82;11.65;;;;;;;4.80;56.86;100837.94;1850861;77;21072;-71
2022/12/29 14:56:03;;;;;;;17.75;11.78;;;;;;;4.88;56.74;100842.33;1743498;80;21896;-70
2022/12/29 14:58:34;;;;;;;19.48;12.82;;;;;;;4.98;56.73;100840.13;1767865;79;21088;-71
2022/12/29 15:01:01;;;;;;;12.33;6.05;;;;;;;5.05;56.67;100845.41;1794463;79;21098;-70
2022/12/29 15:03:44;;;;;;;20.30;12.88;;;;;;;5.06;56.53;100835.81;1802223;79;21031;-70
2022/12/29 15:06:13;;;;;;;19.02;12.75;;;;;;;5.02;56.50;100835.95;1792414;78;21098;-70
2022/12/29 15:08:49;;;;;;;15.55;11.22;;;;;;;4.99;56.56;100830.05;1794770;79;21838;-71
2022/12/29 15:11:22;;;;;;;15.70;11.03;;;;;;;4.92;56.50;100830.81;1795853;79;21742;-70
2022/12/29 15:13:49;;;;;;;12.73;5.53;;;;;;;4.84;56.65;100845.98;1792090;79;21078;-70
2022/12/29 15:16:33;;;;;;;10.35;6.65;;;;;;;4.81;56.86;100842.25;1745252;80;21072;-70
2022/12/29 15:19:00;;;;;;;13.15;6.47;;;;;;;4.75;56.97;100842.07;1785673;79;21536;-71
2022/12/29 15:21:30;;;;;;;20.97;13.83;;;;;;;4.70;56.96;100834.09;1764212;80;21832;-70
2022/12/29 15:23:56;;;;;;;12.25;6.20;;;;;;;4.68;57.09;100841.16;1788033;79;21469;-70
2022/12/29 15:26:23;;;;;;;11.12;6.05;;;;;;;4.65;57.17;100844.27;1789650;79;21709;-70
2022/12/29 15:28:51;;;;;;;16.73;11.12;;;;;;;4.61;57.17;100841.44;1838872;77;21467;-71
2022/12/29 15:31:28;;;;;;;15.50;10.60;;;;;;;4.61;57.20;100853.16;1839638;77;20934;-70
2022/12/29 15:33:57;;;;;;;15.58;6.30;;;;;;;4.59;57.22;100848.49;1832486;77;21105;-71
2022/12/29 15:36:26;;;;;;;12.90;6.78;;;;;;;4.56;57.31;100847.33;1820357;77;21070;-70
2022/12/29 15:38:53;;;;;;;13.35;6.70;;;;;;;4.54;57.34;100852.22;1839185;76;20942;-70
2022/12/29 15:41:59;;;;;;;15.38;10.25;;;;;;;4.53;57.36;100857.06;1836244;77;21053;-70
2022/12/29 15:44:16;;;;;;;14.65;11.60;;;;;;;4.52;57.33;100855.36;1827197;77;21014;-69
2022/12/29 15:46:42;;;;;;;13.05;6.22;;;;;;;4.54;57.34;100850.47;1830243;77;21241;-70
2022/12/29 15:49:13;;;;;;;12.75;6.08;;;;;;;4.53;57.30;100851.38;1830603;77;21027;-70
2022/12/29 15:51:40;;;;;;;18.27;12.82;;;;;;;4.52;57.35;100848.38;1822795;77;21006;-70
2022/12/29 15:54:09;;;;;;;21.40;6.60;;;;;;;4.51;57.42;100850.61;1833013;77;21078;-70
2022/12/29 15:56:36;;;;;;;16.25;8.15;;;;;;;4.53;57.45;100850.55;1831116;76;21045;-70
2022/12/29 15:59:02;;;;;;;13.25;6.90;;;;;;;4.52;57.49;100845.77;1835285;77;21230;-71
2022/12/29 16:01:32;;;;;;;18.95;11.73;;;;;;;4.52;57.55;100844.94;1839553;77;21012;-70
2022/12/29 16:04:01;;;;;;;17.40;12.13;;;;;;;4.53;57.64;100841.42;1841179;77;21087;-70
2022/12/29 16:06:34;;;;;;;21.05;12.40;;;;;;;4.55;57.64;100847.41;1840793;77;21035;-70
2022/12/29 16:09:17;;;;;;;17.75;12.07;;;;;;;4.54;57.68;100832.67;1835532;77;20964;-71
2022/12/29 16:11:51;;;;;;;20.35;12.95;;;;;;;4.53;57.79;100838.35;1836982;77;21025;-71
2022/12/29 16:14:21;;;;;;;10.85;6.55;;;;;;;4.53;57.84;100840.13;1834824;76;21506;-70
2022/12/29 16:16:48;;;;;;;14.50;5.53;;;;;;;4.53;57.88;100844.86;1835126;77;21036;-70
2022/12/29 16:19:23;;;;;;;13.60;6.33;;;;;;;4.59;57.82;100845.02;1834987;77;21063;-71
2022/12/29 16:21:49;;;;;;;11.97;5.72;;;;;;;4.68;57.73;100843.77;1833812;77;21034;-70
2022/12/29 16:24:18;;;;;;;18.12;11.63;;;;;;;4.74;57.54;100839.53;1836238;77;21276;-71
2022/12/29 16:27:03;;;;;;;13.58;6.92;;;;;;;4.77;57.46;100836.78;1838317;77;21066;-72
2022/12/29 16:29:30;;;;;;;11.08;5.90;;;;;;;4.77;57.40;100829.80;1831830;76;21034;-73
2022/12/29 16:32:02;;;;;;;17.67;11.90;;;;;;;4.73;57.36;100828.27;1843618;77;21518;-71
2022/12/29 16:34:41;;;;;;;17.75;11.25;;;;;;;4.67;57.40;100825.95;1830577;77;21057;-71
2022/12/29 16:37:31;;;;;;;12.88;5.08;;;;;;;4.65;57.50;100822.58;1841333;77;21248;-70
2022/12/29 16:40:25;;;;;;;17.65;12.35;;;;;;;4.60;57.58;100820.19;1841504;77;21494;-71
2022/12/29 16:42:57;;;;;;;19.55;12.85;;;;;;;4.54;57.64;100812.69;1832975;77;21027;-71
2022/12/29 16:45:49;;;;;;;11.48;4.67;;;;;;;4.45;57.72;100804.86;1816596;77;21080;-71
2022/12/29 16:48:21;;;;;;;10.05;3.85;;;;;;;4.37;57.94;100817.40;1871678;76;21054;-70
2022/12/29 16:50:48;;;;;;;12.00;5.42;;;;;;;4.27;58.16;100809.63;1826613;78;21136;-71
2022/12/29 16:53:33;;;;;;;16.17;12.25;;;;;;;4.20;58.36;100809.51;1829908;77;20992;-71
2022/12/29 16:56:09;;;;;;;12.43;6.17;;;;;;;4.11;58.55;100802.14;1842098;77;21559;-71
2022/12/29 16:58:37;;;;;;;11.18;6.28;;;;;;;4.07;58.69;100814.47;1832561;77;21713;-72
2022/12/29 17:01:05;;;;;;;12.10;6.58;;;;;;;4.03;58.90;100801.18;1796409;77;21049;-72
2022/12/29 17:03:38;;;;;;;11.53;5.40;;;;;;;4.02;59.02;100800.34;1843179;76;21031;-70
2022/12/29 17:06:06;;;;;;;15.98;11.08;;;;;;;4.00;59.06;100799.58;1837343;77;21076;-72
2022/12/29 17:08:41;;;;;;;21.15;13.15;;;;;;;3.98;59.20;100794.04;1837108;77;21034;-71
2022/12/29 17:14:33;;;;;;;12.07;6.00;;;;;;;3.93;59.34;100803.35;1838079;77;21032;-71
2022/12/29 17:17:00;;;;;;;15.15;6.62;;;;;;;3.87;59.48;100797.98;1839766;77;21203;-71
2022/12/29 17:19:33;;;;;;;19.85;13.45;;;;;;;3.84;59.63;100796.81;1836803;77;21025;-72
2022/12/29 17:22:00;;;;;;;13.08;4.97;;;;;;;3.81;59.72;100796.95;1834001;76;21539;-70
2022/12/29 17:24:27;;;;;;;11.53;5.72;;;;;;;3.81;59.78;100800.84;1839702;77;21507;-71
2022/12/29 17:26:57;;;;;;;21.12;13.13;;;;;;;3.77;59.88;100787.60;1837354;77;21503;-71
2022/12/29 17:29:34;;;;;;;16.97;11.43;;;;;;;3.75;59.94;100783.36;1832009;76;22265;-71
2022/12/29 17:32:02;;;;;;;22.17;13.10;;;;;;;3.75;59.98;100797.25;1834711;77;21024;-72
2022/12/29 17:34:29;;;;;;;11.15;4.65;;;;;;;3.74;59.98;100795.55;1840189;77;21050;-72
2022/12/29 17:36:56;;;;;;;12.78;6.20;;;;;;;3.70;60.04;100789.63;1837135;77;21066;-71
2022/12/29 17:39:22;;;;;;;13.25;6.72;;;;;;;3.67;60.14;100792.83;1836924;76;21007;-71
2022/12/29 17:41:49;;;;;;;17.70;12.23;;;;;;;3.65;60.16;100788.16;1836979;77;21134;-72
2022/12/29 17:44:19;;;;;;;13.30;6.55;;;;;;;3.62;60.28;100789.13;1836308;77;21058;-71
2022/12/29 17:46:47;;;;;;;18.42;12.03;;;;;;;3.60;60.31;100784.45;1839882;77;21016;-71
2022/12/29 17:49:16;;;;;;;13.78;6.35;;;;;;;3.55;60.46;100773.41;1836680;76;20993;-71
2022/12/29 17:51:44;;;;;;;12.00;5.92;;;;;;;3.54;60.47;100780.34;1836051;77;21013;-71
2022/12/29 17:54:21;;;;;;;21.77;12.82;;;;;;;3.51;60.61;100774.01;1833039;76;21242;-70
2022/12/29 17:56:47;;;;;;;12.40;5.47;;;;;;;3.50;60.56;100773.60;1835538;77;21016;-71
2022/12/29 17:59:14;;;;;;;23.27;14.87;;;;;;;3.47;60.62;100776.34;1826016;77;21541;-71